Time;durP1;ratioP1;P1;durP2;ratioP2;P2;SDS_P1;SDS_P2;PMS_P1;PMS_P2;Temp;Humidity;BMP_temperature;BMP_pressure;BME280_temperature;BME280_humidity;BME280_pressure;Samples;Min_cycle;Max_cycle;Signal;HPM_P1;HPM_P2
2022/02/17 00:00:35;;;;;;;31.60;17.65;;;;;;;;;;5094600;28;20035;-77
2022/02/17 00:03:02;;;;;;;26.50;13.90;;;;;;;;;;5094877;28;20030;-77
2022/02/17 00:05:28;;;;;;;23.90;14.13;;;;;;;;;;5094158;28;20017;-77
2022/02/17 00:07:56;;;;;;;24.48;13.88;;;;;;;;;;5093196;28;20052;-77
2022/02/17 00:10:26;;;;;;;18.33;11.73;;;;;;;;;;5094286;28;20581;-77
2022/02/17 00:12:53;;;;;;;20.65;12.48;;;;;;;;;;5094119;28;20107;-77
2022/02/17 00:15:19;;;;;;;19.58;11.93;;;;;;;;;;5094331;28;20506;-77
2022/02/17 00:17:45;;;;;;;18.90;10.85;;;;;;;;;;5094059;28;20476;-77
2022/02/17 00:20:12;;;;;;;19.63;11.77;;;;;;;;;;5093655;28;20031;-77
2022/02/17 00:22:38;;;;;;;20.55;12.52;;;;;;;;;;5094238;28;20048;-77
2022/02/17 00:25:05;;;;;;;29.55;12.98;;;;;;;;;;5094211;28;20032;-77
2022/02/17 00:27:31;;;;;;;26.88;14.98;;;;;;;;;;5093897;28;20028;-77
2022/02/17 00:29:58;;;;;;;26.33;14.25;;;;;;;;;;5094087;28;20065;-78
2022/02/17 00:32:24;;;;;;;23.63;12.18;;;;;;;;;;5093789;28;20178;-77
2022/02/17 00:34:50;;;;;;;18.98;11.68;;;;;;;;;;5094159;28;20021;-78
2022/02/17 00:37:17;;;;;;;21.27;11.07;;;;;;;;;;5094058;28;20016;-77
2022/02/17 00:39:43;;;;;;;27.02;13.35;;;;;;;;;;5094037;28;20027;-77
2022/02/17 00:42:09;;;;;;;17.08;11.32;;;;;;;;;;5093992;28;20145;-77
2022/02/17 00:44:35;;;;;;;22.83;12.55;;;;;;;;;;5093911;28;20081;-78
2022/02/17 00:47:02;;;;;;;18.65;10.45;;;;;;;;;;5093459;28;20031;-78
2022/02/17 00:49:29;;;;;;;20.83;12.95;;;;;;;;;;5093887;28;20037;-77
2022/02/17 00:51:55;;;;;;;22.90;11.65;;;;;;;;;;5093882;28;20024;-78
2022/02/17 00:54:22;;;;;;;21.08;11.10;;;;;;;;;;5093552;28;20028;-77
2022/02/17 00:56:48;;;;;;;31.17;14.93;;;;;;;;;;5093863;28;20016;-79
2022/02/17 00:59:15;;;;;;;27.77;14.15;;;;;;;;;;5093757;28;20028;-78
2022/02/17 01:01:46;;;;;;;33.38;16.38;;;;;;;;;;5093480;28;20021;-77
2022/02/17 01:04:12;;;;;;;34.15;17.70;;;;;;;;;;5093958;28;20376;-77
2022/02/17 01:06:39;;;;;;;27.25;14.35;;;;;;;;;;5093700;28;20027;-77
2022/02/17 01:09:09;;;;;;;25.83;14.98;;;;;;;;;;5093068;28;20052;-78
2022/02/17 01:11:35;;;;;;;32.13;14.38;;;;;;;;;;5093553;28;20044;-78
2022/02/17 01:14:01;;;;;;;29.95;15.48;;;;;;;;;;5093535;28;20476;-77
2022/02/17 01:16:27;;;;;;;24.63;12.85;;;;;;;;;;5093307;28;20024;-77
2022/02/17 01:18:54;;;;;;;22.30;11.05;;;;;;;;;;5092319;28;20384;-78
2022/02/17 01:21:20;;;;;;;18.33;11.93;;;;;;;;;;5093754;28;20024;-77
2022/02/17 01:23:46;;;;;;;17.85;9.80;;;;;;;;;;5093093;28;20494;-77
2022/02/17 01:26:13;;;;;;;20.38;10.23;;;;;;;;;;5093679;28;20380;-77
2022/02/17 01:28:40;;;;;;;18.90;10.20;;;;;;;;;;5093096;28;20027;-77
2022/02/17 01:31:06;;;;;;;21.30;10.60;;;;;;;;;;5095265;28;20023;-78
2022/02/17 01:33:34;;;;;;;22.90;10.65;;;;;;;;;;5097799;28;20016;-77
2022/02/17 01:36:06;;;;;;;20.95;10.60;;;;;;;;;;5099897;28;20035;-78
2022/02/17 01:38:33;;;;;;;16.45;9.98;;;;;;;;;;5100379;28;20016;-77
2022/02/17 01:41:00;;;;;;;19.00;10.15;;;;;;;;;;5097639;28;20027;-77
2022/02/17 01:43:27;;;;;;;19.50;8.88;;;;;;;;;;5097279;28;20044;-77
2022/02/17 01:45:53;;;;;;;17.95;8.85;;;;;;;;;;5096185;28;20503;-79
2022/02/17 01:48:19;;;;;;;18.92;10.48;;;;;;;;;;5097475;28;20365;-77
2022/02/17 01:50:45;;;;;;;21.65;13.00;;;;;;;;;;5097083;28;20032;-78
2022/02/17 01:53:12;;;;;;;17.98;10.80;;;;;;;;;;5098004;28;20409;-78
2022/02/17 01:55:39;;;;;;;21.33;12.25;;;;;;;;;;5097549;28;20028;-79
2022/02/17 01:58:05;;;;;;;16.20;10.65;;;;;;;;;;5097119;28;20025;-77
2022/02/17 02:00:32;;;;;;;21.33;10.38;;;;;;;;;;5097518;28;20016;-77
2022/02/17 02:02:59;;;;;;;19.55;11.20;;;;;;;;;;5096989;28;20480;-76
2022/02/17 02:05:25;;;;;;;19.05;11.05;;;;;;;;;;5096563;28;20024;-76
2022/02/17 02:07:52;;;;;;;23.50;13.43;;;;;;;;;;5096816;28;20103;-77
2022/02/17 02:10:18;;;;;;;24.90;13.00;;;;;;;;;;5097991;28;20044;-77
2022/02/17 02:12:44;;;;;;;22.02;12.63;;;;;;;;;;5098190;28;20081;-77
2022/02/17 02:15:11;;;;;;;21.73;12.05;;;;;;;;;;5097208;28;20024;-76
2022/02/17 02:17:40;;;;;;;27.00;12.70;;;;;;;;;;5098144;28;20058;-77
2022/02/17 02:20:07;;;;;;;21.70;11.95;;;;;;;;;;5097842;28;20476;-77
2022/02/17 02:22:34;;;;;;;21.55;11.52;;;;;;;;;;5098360;28;20023;-76
2022/02/17 02:25:01;;;;;;;18.92;10.75;;;;;;;;;;5094930;28;20057;-77
2022/02/17 02:27:28;;;;;;;25.20;12.60;;;;;;;;;;5096850;28;20104;-76
2022/02/17 02:29:55;;;;;;;22.05;12.25;;;;;;;;;;5095052;28;20427;-77
2022/02/17 02:32:21;;;;;;;19.25;11.05;;;;;;;;;;5096076;28;20028;-77
2022/02/17 02:34:47;;;;;;;20.88;11.65;;;;;;;;;;5096429;28;20387;-78
2022/02/17 02:37:14;;;;;;;18.13;10.75;;;;;;;;;;5096448;28;20020;-76
2022/02/17 02:39:40;;;;;;;19.00;11.20;;;;;;;;;;5095993;28;20030;-76
2022/02/17 02:42:06;;;;;;;22.88;12.43;;;;;;;;;;5095700;28;20031;-78
2022/02/17 02:44:33;;;;;;;19.73;12.07;;;;;;;;;;5096324;28;20028;-76
2022/02/17 02:47:00;;;;;;;24.45;12.90;;;;;;;;;;5096279;28;20361;-77
2022/02/17 02:49:26;;;;;;;19.60;12.10;;;;;;;;;;5095978;28;20032;-75
2022/02/17 02:51:52;;;;;;;24.13;12.73;;;;;;;;;;5096305;28;20020;-79
2022/02/17 02:54:18;;;;;;;20.40;11.93;;;;;;;;;;5094275;28;20028;-76
2022/02/17 02:56:44;;;;;;;20.50;11.95;;;;;;;;;;5096007;28;20365;-77
2022/02/17 02:59:11;;;;;;;19.30;10.50;;;;;;;;;;5095892;28;20016;-76
2022/02/17 03:01:37;;;;;;;22.05;11.90;;;;;;;;;;5095543;28;20490;-78
2022/02/17 03:04:03;;;;;;;20.95;13.07;;;;;;;;;;5096058;28;20016;-76
2022/02/17 03:06:30;;;;;;;24.63;13.73;;;;;;;;;;5096097;28;20032;-78
2022/02/17 03:08:57;;;;;;;28.20;17.08;;;;;;;;;;5095054;28;20067;-77
2022/02/17 03:11:23;;;;;;;31.38;18.25;;;;;;;;;;5095754;28;20016;-76
2022/02/17 03:13:50;;;;;;;24.05;14.05;;;;;;;;;;5095604;28;20024;-77
2022/02/17 03:16:16;;;;;;;24.17;13.55;;;;;;;;;;5095246;28;20361;-76
2022/02/17 03:18:42;;;;;;;19.38;12.48;;;;;;;;;;5095538;28;20020;-77
2022/02/17 03:21:09;;;;;;;19.25;12.05;;;;;;;;;;5095337;28;20024;-76
2022/02/17 03:23:35;;;;;;;20.75;12.80;;;;;;;;;;5095348;28;20027;-76
2022/02/17 03:26:01;;;;;;;19.25;11.55;;;;;;;;;;5095314;28;20035;-76
2022/02/17 03:28:27;;;;;;;18.23;10.70;;;;;;;;;;5094827;28;20020;-79
2022/02/17 03:30:54;;;;;;;25.13;12.70;;;;;;;;;;5095510;28;20028;-77
2022/02/17 03:33:21;;;;;;;26.02;13.88;;;;;;;;;;5095217;28;20012;-76
2022/02/17 03:35:47;;;;;;;22.90;13.43;;;;;;;;;;5094839;28;20020;-76
2022/02/17 03:38:14;;;;;;;23.95;14.32;;;;;;;;;;5095110;28;20499;-77
2022/02/17 03:40:40;;;;;;;22.27;14.18;;;;;;;;;;5095330;28;20048;-77
2022/02/17 03:43:06;;;;;;;23.65;14.27;;;;;;;;;;5094566;28;20066;-76
2022/02/17 03:45:32;;;;;;;23.58;13.20;;;;;;;;;;5095067;28;20027;-76
2022/02/17 03:47:58;;;;;;;25.33;14.27;;;;;;;;;;5095007;28;20437;-77
2022/02/17 03:50:25;;;;;;;21.38;12.38;;;;;;;;;;5093145;28;20040;-76
2022/02/17 03:52:51;;;;;;;21.35;12.20;;;;;;;;;;5094309;28;20057;-76
2022/02/17 03:55:17;;;;;;;27.10;15.32;;;;;;;;;;5094588;28;20506;-77
2022/02/17 03:57:44;;;;;;;29.25;16.70;;;;;;;;;;5094819;28;20024;-77
2022/02/17 04:00:11;;;;;;;25.58;14.10;;;;;;;;;;5094806;28;20388;-79
2022/02/17 04:02:37;;;;;;;27.60;14.93;;;;;;;;;;5094758;28;20021;-76
2022/02/17 04:05:04;;;;;;;21.67;12.77;;;;;;;;;;5094366;28;20059;-76
2022/02/17 04:07:30;;;;;;;22.63;13.43;;;;;;;;;;5094978;28;20376;-75
2022/02/17 04:09:57;;;;;;;25.92;14.35;;;;;;;;;;5094221;28;20488;-75
2022/02/17 04:12:24;;;;;;;26.73;14.30;;;;;;;;;;5094076;28;20020;-76
2022/02/17 04:14:50;;;;;;;24.98;14.45;;;;;;;;;;5094506;28;20031;-77
2022/02/17 04:17:16;;;;;;;23.23;15.07;;;;;;;;;;5094521;28;20017;-76
2022/02/17 04:19:42;;;;;;;26.17;15.43;;;;;;;;;;5093926;28;20104;-76
2022/02/17 04:22:09;;;;;;;37.85;20.67;;;;;;;;;;5094484;28;20026;-76
2022/02/17 04:24:35;;;;;;;36.90;19.20;;;;;;;;;;5093902;28;20049;-76
2022/02/17 04:27:01;;;;;;;34.17;17.17;;;;;;;;;;5094274;28;20028;-76
2022/02/17 04:29:28;;;;;;;33.90;18.00;;;;;;;;;;5094297;28;20039;-76
2022/02/17 04:31:55;;;;;;;23.08;14.95;;;;;;;;;;5093686;28;20376;-76
2022/02/17 04:34:21;;;;;;;26.40;14.75;;;;;;;;;;5094091;28;20024;-77
2022/02/17 04:36:47;;;;;;;25.90;14.73;;;;;;;;;;5094393;28;20020;-76
2022/02/17 04:39:14;;;;;;;20.83;13.02;;;;;;;;;;5093644;28;20503;-77
2022/02/17 04:44:25;;;;;;;21.33;11.48;;;;;;;;;;5093981;28;20435;-76
2022/02/17 04:46:51;;;;;;;16.85;11.02;;;;;;;;;;5093443;28;20020;-76
2022/02/17 04:49:17;;;;;;;19.63;11.90;;;;;;;;;;5094094;28;20024;-76
2022/02/17 04:51:43;;;;;;;20.10;11.65;;;;;;;;;;5093903;28;20384;-76
2022/02/17 04:54:10;;;;;;;17.30;10.93;;;;;;;;;;5093423;28;20384;-77
2022/02/17 04:56:36;;;;;;;13.65;8.60;;;;;;;;;;5094082;28;20020;-77
2022/02/17 04:59:02;;;;;;;17.33;10.00;;;;;;;;;;5101326;28;20027;-76
2022/02/17 05:01:29;;;;;;;14.98;10.60;;;;;;;;;;5109610;28;20357;-76
2022/02/17 05:03:55;;;;;;;18.85;9.75;;;;;;;;;;5094866;28;20028;-76
2022/02/17 05:06:21;;;;;;;20.08;11.63;;;;;;;;;;5093614;28;20024;-76
2022/02/17 05:08:47;;;;;;;20.42;12.65;;;;;;;;;;5093107;28;20052;-76
2022/02/17 05:11:13;;;;;;;22.70;14.50;;;;;;;;;;5094079;28;20109;-77
2022/02/17 05:13:40;;;;;;;35.85;22.52;;;;;;;;;;5094772;28;20020;-83
2022/02/17 05:16:07;;;;;;;48.53;30.13;;;;;;;;;;5094404;28;20031;-77
2022/02/17 05:18:33;;;;;;;34.40;22.02;;;;;;;;;;5094163;28;20012;-77
2022/02/17 05:20:59;;;;;;;38.45;24.00;;;;;;;;;;5093082;28;20365;-76
2022/02/17 05:23:25;;;;;;;43.63;27.90;;;;;;;;;;5094089;28;20024;-77
2022/02/17 05:25:52;;;;;;;40.75;25.52;;;;;;;;;;5093526;28;20516;-75
2022/02/17 05:28:18;;;;;;;43.75;26.55;;;;;;;;;;5092984;28;20431;-75
2022/02/17 05:30:45;;;;;;;38.83;23.45;;;;;;;;;;5093315;28;20115;-76
2022/02/17 05:33:12;;;;;;;33.95;21.30;;;;;;;;;;5093229;28;20020;-76
2022/02/17 05:35:38;;;;;;;31.02;21.10;;;;;;;;;;5092987;28;20081;-75
2022/02/17 05:38:04;;;;;;;42.67;24.40;;;;;;;;;;5093406;28;20028;-76
2022/02/17 05:40:31;;;;;;;45.47;26.63;;;;;;;;;;5093131;28;20103;-76
2022/02/17 05:42:57;;;;;;;48.72;29.75;;;;;;;;;;5092807;28;20020;-76
2022/02/17 05:45:23;;;;;;;41.88;25.05;;;;;;;;;;5093029;28;20028;-75
2022/02/17 05:47:50;;;;;;;47.38;25.98;;;;;;;;;;5093410;28;20095;-76
2022/02/17 05:50:16;;;;;;;52.30;27.48;;;;;;;;;;5092654;28;20573;-76
2022/02/17 05:52:42;;;;;;;52.03;31.92;;;;;;;;;;5093321;28;20048;-76
2022/02/17 05:55:09;;;;;;;55.00;32.88;;;;;;;;;;5093341;28;20376;-76
2022/02/17 05:57:35;;;;;;;67.78;35.58;;;;;;;;;;5092665;28;20108;-77
2022/02/17 06:00:01;;;;;;;71.93;43.20;;;;;;;;;;5093037;28;20024;-76
2022/02/17 06:02:27;;;;;;;78.65;43.13;;;;;;;;;;5092152;28;20030;-75
2022/02/17 06:04:54;;;;;;;90.53;52.75;;;;;;;;;;5089037;28;20016;-76
2022/02/17 06:07:20;;;;;;;62.70;36.47;;;;;;;;;;5090240;28;20410;-75
2022/02/17 06:09:48;;;;;;;55.00;33.20;;;;;;;;;;5092420;28;20102;-76
2022/02/17 06:12:14;;;;;;;79.40;44.60;;;;;;;;;;5092496;28;20048;-76
2022/02/17 06:14:40;;;;;;;59.47;37.22;;;;;;;;;;5091932;28;20035;-77
2022/02/17 06:17:07;;;;;;;57.47;33.40;;;;;;;;;;5093906;28;20043;-76
2022/02/17 06:19:33;;;;;;;48.95;31.23;;;;;;;;;;5095643;28;20069;-75
2022/02/17 06:21:59;;;;;;;51.17;31.20;;;;;;;;;;5096119;28;20070;-77
2022/02/17 06:24:26;;;;;;;79.80;46.17;;;;;;;;;;5092072;28;20020;-75
2022/02/17 06:26:52;;;;;;;99.05;57.03;;;;;;;;;;5095371;28;20012;-76
2022/02/17 06:29:18;;;;;;;94.05;55.67;;;;;;;;;;5095475;28;20020;-79
2022/02/17 06:31:44;;;;;;;88.82;51.92;;;;;;;;;;5093369;28;20433;-78
2022/02/17 06:34:11;;;;;;;92.05;48.75;;;;;;;;;;5093786;28;20106;-80
2022/02/17 06:36:38;;;;;;;89.00;47.30;;;;;;;;;;5089125;28;20146;-76
2022/02/17 06:39:05;;;;;;;109.35;63.42;;;;;;;;;;5094162;28;20051;-78
2022/02/17 06:41:31;;;;;;;108.53;60.72;;;;;;;;;;5095200;28;20077;-79
2022/02/17 06:43:58;;;;;;;110.57;57.70;;;;;;;;;;5095574;28;20365;-79
2022/02/17 06:46:25;;;;;;;85.07;46.85;;;;;;;;;;5095521;28;20028;-80
2022/02/17 06:48:51;;;;;;;67.47;39.97;;;;;;;;;;5091439;28;20440;-79
2022/02/17 06:51:17;;;;;;;73.05;40.97;;;;;;;;;;5095501;28;20021;-79
2022/02/17 06:53:43;;;;;;;61.63;39.58;;;;;;;;;;5093088;28;20028;-78
2022/02/17 06:56:09;;;;;;;74.78;45.65;;;;;;;;;;5092661;28;20024;-77
2022/02/17 06:58:36;;;;;;;81.78;48.78;;;;;;;;;;5091349;28;20027;-78
2022/02/17 07:01:02;;;;;;;60.58;38.45;;;;;;;;;;5093355;28;20020;-77
2022/02/17 07:03:28;;;;;;;49.78;27.98;;;;;;;;;;5092061;28;20448;-78
2022/02/17 07:05:54;;;;;;;40.40;27.42;;;;;;;;;;5093086;28;20060;-76
2022/02/17 07:08:21;;;;;;;31.40;20.90;;;;;;;;;;5091820;28;20055;-80
2022/02/17 07:10:56;;;;;;;25.23;15.43;;;;;;;;;;5092150;28;20066;-81
2022/02/17 07:13:26;;;;;;;22.13;13.50;;;;;;;;;;5091666;28;20028;-79
2022/02/17 07:15:53;;;;;;;15.88;11.35;;;;;;;;;;5092943;28;20111;-84
2022/02/17 07:18:20;;;;;;;18.10;11.18;;;;;;;;;;5091703;28;20016;-81
2022/02/17 07:20:47;;;;;;;18.60;11.43;;;;;;;;;;5089815;28;20045;-78
2022/02/17 07:23:14;;;;;;;17.17;10.95;;;;;;;;;;5091545;28;20017;-76
2022/02/17 07:25:41;;;;;;;19.08;11.73;;;;;;;;;;5090885;28;20112;-79
2022/02/17 07:28:07;;;;;;;35.90;21.83;;;;;;;;;;5091070;28;20024;-79
2022/02/17 07:30:35;;;;;;;21.90;14.00;;;;;;;;;;5091789;28;20043;-81
2022/02/17 07:33:02;;;;;;;26.52;15.50;;;;;;;;;;5092226;28;20024;-81
2022/02/17 07:35:28;;;;;;;23.65;14.20;;;;;;;;;;5092598;28;20028;-81
2022/02/17 07:37:55;;;;;;;51.45;29.00;;;;;;;;;;5095473;28;20436;-81
2022/02/17 07:40:21;;;;;;;42.65;27.13;;;;;;;;;;5094526;28;20487;-79
2022/02/17 07:42:47;;;;;;;102.15;59.50;;;;;;;;;;5092856;28;20043;-80
2022/02/17 07:45:14;;;;;;;59.97;37.70;;;;;;;;;;5092558;28;20027;-78
2022/02/17 07:47:44;;;;;;;49.67;31.80;;;;;;;;;;5091273;28;20047;-77
2022/02/17 07:50:15;;;;;;;63.80;46.90;;;;;;;;;;5092131;28;20032;-77
2022/02/17 07:52:41;;;;;;;58.20;40.85;;;;;;;;;;5092842;28;20016;-80
2022/02/17 07:55:08;;;;;;;37.53;24.50;;;;;;;;;;5092119;28;20453;-80
2022/02/17 07:57:34;;;;;;;41.03;22.90;;;;;;;;;;5092644;28;20024;-82
2022/02/17 08:00:01;;;;;;;34.15;21.35;;;;;;;;;;5091462;28;20023;-81
2022/02/17 08:02:27;;;;;;;41.85;24.90;;;;;;;;;;5092104;28;20103;-80
2022/02/17 08:04:53;;;;;;;39.45;26.05;;;;;;;;;;5091791;28;20024;-77
2022/02/17 08:07:19;;;;;;;35.33;24.95;;;;;;;;;;5091066;28;20017;-77
2022/02/17 08:09:45;;;;;;;30.75;19.13;;;;;;;;;;5090306;28;20334;-77
2022/02/17 08:12:12;;;;;;;27.17;16.73;;;;;;;;;;5092566;28;20024;-81
2022/02/17 08:14:38;;;;;;;31.27;20.48;;;;;;;;;;5093286;28;20029;-80
2022/02/17 08:17:04;;;;;;;36.83;21.98;;;;;;;;;;5091998;28;20542;-79
2022/02/17 08:19:33;;;;;;;30.10;21.08;;;;;;;;;;5092621;28;20016;-82
2022/02/17 08:22:01;;;;;;;35.15;22.00;;;;;;;;;;5090067;28;20050;-77
2022/02/17 08:24:27;;;;;;;24.98;18.17;;;;;;;;;;5090648;28;20100;-77
2022/02/17 08:26:57;;;;;;;26.92;15.35;;;;;;;;;;5092496;28;20412;-78
2022/02/17 08:29:24;;;;;;;26.70;14.52;;;;;;;;;;5094994;28;20039;-82
2022/02/17 08:31:50;;;;;;;26.55;14.55;;;;;;;;;;5101060;28;20031;-78
2022/02/17 08:35:07;;;;;;;38.08;23.35;;;;;;;;;;5105312;27;20415;-80
2022/02/17 08:37:46;;;;;;;60.15;33.25;;;;;;;;;;5108049;27;20408;-77
2022/02/17 08:40:13;;;;;;;53.97;31.52;;;;;;;;;;5108110;28;20036;-77
2022/02/17 08:42:39;;;;;;;26.05;15.93;;;;;;;;;;5110746;28;20073;-76
2022/02/17 08:45:05;;;;;;;38.90;23.92;;;;;;;;;;5109259;28;20046;-77
2022/02/17 08:47:32;;;;;;;32.47;19.40;;;;;;;;;;5100718;28;20028;-79
2022/02/17 08:53:25;;;;;;;23.90;14.48;;;;;;;;;;5107695;27;20389;-77
2022/02/17 09:01:05;;;;;;;20.25;14.75;;;;;;;;;;5106447;27;20394;-79
2022/02/17 09:03:31;;;;;;;41.45;22.83;;;;;;;;;;5107572;28;20059;-77
2022/02/17 09:08:03;;;;;;;41.20;24.63;;;;;;;;;;5110398;27;20422;-81
2022/02/17 09:11:48;;;;;;;45.83;25.20;;;;;;;;;;5131036;27;20751;-82
2022/02/17 09:14:15;;;;;;;56.00;28.83;;;;;;;;;;5129164;28;20666;-79
2022/02/17 09:16:41;;;;;;;25.23;15.30;;;;;;;;;;5130805;28;20039;-78
2022/02/17 09:19:07;;;;;;;23.65;14.55;;;;;;;;;;5130699;28;20079;-79
2022/02/17 09:23:38;;;;;;;17.50;11.52;;;;;;;;;;5110700;27;20438;-79
2022/02/17 09:26:06;;;;;;;25.85;15.90;;;;;;;;;;5110769;28;20027;-76
2022/02/17 09:28:32;;;;;;;24.65;14.02;;;;;;;;;;5110109;28;20080;-83
2022/02/17 09:30:58;;;;;;;18.08;10.38;;;;;;;;;;5110959;28;20049;-82
2022/02/17 09:33:25;;;;;;;19.13;12.13;;;;;;;;;;5109243;28;20031;-76
2022/02/17 09:38:41;;;;;;;21.50;13.13;;;;;;;;;;5111386;27;20404;-80
2022/02/17 09:41:08;;;;;;;16.52;9.80;;;;;;;;;;5109861;28;20127;-81
2022/02/17 09:43:35;;;;;;;16.67;11.15;;;;;;;;;;5123623;28;20020;-78
2022/02/17 09:46:57;;;;;;;15.95;10.00;;;;;;;;;;5109545;27;20407;-79
2022/02/17 09:49:24;;;;;;;19.40;11.18;;;;;;;;;;5107481;28;20111;-76
2022/02/17 09:55:44;;;;;;;22.83;14.32;;;;;;;;;;5107177;27;20408;-70
2022/02/17 09:58:11;;;;;;;20.60;12.10;;;;;;;;;;5107176;28;20081;-72
2022/02/17 10:02:46;;;;;;;27.42;17.60;;;;;;;;;;5109474;27;20442;-71
2022/02/17 10:05:12;;;;;;;20.48;13.93;;;;;;;;;;5111051;28;20023;-74
2022/02/17 10:09:22;;;;;;;21.80;11.48;;;;;;;;;;5108645;27;20715;-72
2022/02/17 10:15:05;;;;;;;24.20;15.02;;;;;;;;;;5070367;28;20412;-72
2022/02/17 10:19:27;;;;;;;17.60;9.18;;;;;;;;;;5110701;27;20416;-71
2022/02/17 10:22:23;;;;;;;12.70;8.43;;;;;;;;;;5110654;27;20420;-71
2022/02/17 10:26:33;;;;;;;18.63;8.27;;;;;;;;;;5110796;27;20416;-71
2022/02/17 10:29:01;;;;;;;20.73;9.32;;;;;;;;;;5126547;28;20031;-72
2022/02/17 10:31:37;;;;;;;16.92;9.10;;;;;;;;;;5110052;28;20020;-69
2022/02/17 10:34:05;;;;;;;14.60;8.45;;;;;;;;;;5110253;28;20495;-71
2022/02/17 10:36:38;;;;;;;13.13;8.35;;;;;;;;;;5109002;28;20035;-71
2022/02/17 10:39:10;;;;;;;14.05;8.13;;;;;;;;;;5105164;28;20103;-71
2022/02/17 10:41:44;;;;;;;14.52;8.40;;;;;;;;;;5107131;28;20032;-73
2022/02/17 10:44:10;;;;;;;45.42;25.30;;;;;;;;;;5106575;28;20107;-73
2022/02/17 10:46:37;;;;;;;19.13;12.65;;;;;;;;;;5107145;28;20035;-73
2022/02/17 10:49:19;;;;;;;23.10;14.13;;;;;;;;;;5107365;28;20023;-75
2022/02/17 10:51:45;;;;;;;13.95;7.97;;;;;;;;;;5108075;28;20486;-76
2022/02/17 10:55:58;;;;;;;15.98;9.43;;;;;;;;;;5109556;27;20392;-77
2022/02/17 10:58:28;;;;;;;15.10;10.27;;;;;;;;;;5094282;28;20042;-75
2022/02/17 11:00:55;;;;;;;16.27;9.02;;;;;;;;;;5110158;28;20032;-76
2022/02/17 11:03:22;;;;;;;13.15;8.30;;;;;;;;;;5107283;28;20115;-76
2022/02/17 11:05:52;;;;;;;13.95;6.50;;;;;;;;;;5109433;28;20028;-77
2022/02/17 11:08:18;;;;;;;13.65;7.05;;;;;;;;;;5108239;28;20020;-77
2022/02/17 11:10:56;;;;;;;17.83;10.80;;;;;;;;;;5082426;28;20320;-73
2022/02/17 11:13:23;;;;;;;14.93;7.40;;;;;;;;;;5069816;28;20397;-76
2022/02/17 11:16:45;;;;;;;16.52;10.90;;;;;;;;;;5110182;27;20318;-77
2022/02/17 11:19:11;;;;;;;16.65;9.15;;;;;;;;;;5088907;28;20036;-77
2022/02/17 11:21:37;;;;;;;12.48;8.98;;;;;;;;;;5089012;28;20033;-78
2022/02/17 11:24:04;;;;;;;13.52;8.10;;;;;;;;;;5090071;28;20032;-74
2022/02/17 11:27:06;;;;;;;11.63;5.90;;;;;;;;;;5110747;27;20414;-73
2022/02/17 11:29:34;;;;;;;10.57;5.75;;;;;;;;;;5110194;28;20032;-77
2022/02/17 11:32:05;;;;;;;11.30;6.05;;;;;;;;;;5111659;28;20020;-77
2022/02/17 11:35:30;;;;;;;9.10;4.93;;;;;;;;;;5110809;27;20437;-77
2022/02/17 11:37:56;;;;;;;12.93;7.55;;;;;;;;;;5107142;28;20131;-79
2022/02/17 11:40:22;;;;;;;9.07;5.10;;;;;;;;;;5113595;28;20495;-77
2022/02/17 11:44:21;;;;;;;14.52;8.07;;;;;;;;;;5129892;27;20112;-73
2022/02/17 11:46:52;;;;;;;15.50;7.93;;;;;;;;;;5098598;28;20067;-74
2022/02/17 11:50:30;;;;;;;19.95;9.63;;;;;;;;;;5082427;28;20415;-74
2022/02/17 11:53:14;;;;;;;17.42;10.48;;;;;;;;;;5068067;28;20053;-78
2022/02/17 11:55:40;;;;;;;16.15;7.50;;;;;;;;;;5067413;28;20025;-81
2022/02/17 12:00:44;;;;;;;11.10;5.05;;;;;;;;;;5107864;27;20408;-78
2022/02/17 12:03:11;;;;;;;10.85;6.10;;;;;;;;;;5125777;28;20036;-81
2022/02/17 12:08:31;;;;;;;9.95;6.22;;;;;;;;;;5136218;27;20707;-82
2022/02/17 12:11:17;;;;;;;14.48;6.43;;;;;;;;;;5112782;28;20421;-78
2022/02/17 12:13:50;;;;;;;10.35;5.75;;;;;;;;;;5110099;28;20047;-78
2022/02/17 12:17:10;;;;;;;12.40;6.07;;;;;;;;;;5070213;27;20379;-80
2022/02/17 12:19:36;;;;;;;9.40;5.40;;;;;;;;;;5066738;28;20047;-77
2022/02/17 12:22:12;;;;;;;12.40;5.75;;;;;;;;;;5041068;28;20033;-76
2022/02/17 12:25:15;;;;;;;8.73;4.80;;;;;;;;;;5110824;27;20438;-79
2022/02/17 12:28:34;;;;;;;9.15;4.60;;;;;;;;;;5110996;27;20907;-76
2022/02/17 12:31:00;;;;;;;9.20;5.13;;;;;;;;;;5110575;28;20030;-75
2022/02/17 12:33:27;;;;;;;13.95;7.10;;;;;;;;;;5106972;28;20499;-82
2022/02/17 12:36:10;;;;;;;13.60;7.53;;;;;;;;;;5109695;28;20036;-77
2022/02/17 12:38:36;;;;;;;10.05;5.38;;;;;;;;;;5109654;28;20103;-78
2022/02/17 12:41:07;;;;;;;8.32;4.70;;;;;;;;;;5110534;28;20027;-78
2022/02/17 12:43:38;;;;;;;10.65;5.43;;;;;;;;;;5099975;28;20051;-79
2022/02/17 12:46:09;;;;;;;9.23;4.50;;;;;;;;;;5085942;28;20038;-77
2022/02/17 12:48:36;;;;;;;11.70;5.60;;;;;;;;;;5089380;28;20040;-76
2022/02/17 12:51:03;;;;;;;10.27;6.15;;;;;;;;;;5087051;28;20099;-77
2022/02/17 12:53:44;;;;;;;8.50;4.28;;;;;;;;;;5089706;28;20027;-74
2022/02/17 12:56:10;;;;;;;7.88;4.00;;;;;;;;;;5089798;28;20044;-76
2022/02/17 13:01:33;;;;;;;10.95;4.38;;;;;;;;;;5069700;27;20441;-76
2022/02/17 13:05:08;;;;;;;7.70;4.18;;;;;;;;;;5110143;27;20842;-77
2022/02/17 13:07:35;;;;;;;7.70;4.20;;;;;;;;;;5110694;28;20024;-76
2022/02/17 13:10:39;;;;;;;8.38;5.07;;;;;;;;;;5110848;27;20412;-75
2022/02/17 13:13:06;;;;;;;14.43;7.72;;;;;;;;;;5110301;28;20099;-78
2022/02/17 13:15:32;;;;;;;14.23;6.53;;;;;;;;;;5110589;28;20051;-76
2022/02/17 13:18:52;;;;;;;7.15;4.30;;;;;;;;;;5130864;27;20850;-81
2022/02/17 13:22:46;;;;;;;12.77;6.93;;;;;;;;;;5128588;27;20646;-76
2022/02/17 13:25:13;;;;;;;9.80;6.47;;;;;;;;;;5107994;28;20097;-76
2022/02/17 13:27:40;;;;;;;10.10;5.50;;;;;;;;;;5092424;28;20472;-79
2022/02/17 13:30:08;;;;;;;9.65;5.05;;;;;;;;;;5089362;28;20040;-77
2022/02/17 13:32:42;;;;;;;19.48;8.95;;;;;;;;;;5089492;28;20032;-79
2022/02/17 13:35:15;;;;;;;12.13;6.53;;;;;;;;;;5089917;28;20020;-79
2022/02/17 13:37:48;;;;;;;19.05;11.40;;;;;;;;;;5106618;28;20032;-78
2022/02/17 13:40:15;;;;;;;16.60;9.27;;;;;;;;;;5109301;28;20016;-76
2022/02/17 13:46:00;;;;;;;11.40;6.47;;;;;;;;;;5070224;28;20996;-76
2022/02/17 13:52:30;;;;;;;6.82;3.88;;;;;;;;;;5069522;28;20391;-76
2022/02/17 13:58:05;;;;;;;13.77;7.00;;;;;;;;;;5069369;28;20387;-79
2022/02/17 14:00:38;;;;;;;15.07;8.57;;;;;;;;;;5067827;28;20496;-73
2022/02/17 14:03:23;;;;;;;17.05;9.60;;;;;;;;;;5067403;28;20092;-77
2022/02/17 14:05:50;;;;;;;12.63;6.88;;;;;;;;;;5067946;28;20029;-80
2022/02/17 14:08:18;;;;;;;11.82;6.50;;;;;;;;;;5056040;28;20026;-79
2022/02/17 14:12:06;;;;;;;13.38;9.10;;;;;;;;;;5069942;28;20422;-77
2022/02/17 14:18:33;;;;;;;14.35;8.80;;;;;;;;;;5110785;27;20388;-76
2022/02/17 14:21:00;;;;;;;27.60;15.50;;;;;;;;;;5110851;28;20023;-80
2022/02/17 14:23:26;;;;;;;35.60;17.60;;;;;;;;;;5110267;28;20031;-80
2022/02/17 14:26:27;;;;;;;31.10;16.30;;;;;;;;;;5070249;28;20783;-81
2022/02/17 14:28:53;;;;;;;28.08;14.57;;;;;;;;;;5069265;28;20115;-83
2022/02/17 14:31:19;;;;;;;14.98;9.20;;;;;;;;;;5069245;28;20067;-78
2022/02/17 14:33:46;;;;;;;15.25;9.15;;;;;;;;;;5068541;28;20528;-84
2022/02/17 14:36:12;;;;;;;12.15;7.35;;;;;;;;;;5070367;28;20134;-81
2022/02/17 14:38:41;;;;;;;22.85;15.77;;;;;;;;;;5070293;28;20032;-76
2022/02/17 14:41:07;;;;;;;18.98;11.85;;;;;;;;;;5069108;28;20396;-80
2022/02/17 14:45:05;;;;;;;22.27;11.95;;;;;;;;;;5070294;28;20403;-76
2022/02/17 14:47:34;;;;;;;36.80;24.30;;;;;;;;;;5070914;28;20040;-79
2022/02/17 14:50:00;;;;;;;25.17;15.75;;;;;;;;;;5070571;28;20045;-82
2022/02/17 14:53:46;;;;;;;18.98;13.55;;;;;;;;;;5091517;27;20410;-79
2022/02/17 14:56:13;;;;;;;23.98;14.52;;;;;;;;;;5090940;28;20086;-76
2022/02/17 14:58:39;;;;;;;26.20;15.15;;;;;;;;;;5090425;28;20107;-76
2022/02/17 15:02:17;;;;;;;24.33;14.82;;;;;;;;;;5091359;27;20393;-76
2022/02/17 15:09:17;;;;;;;27.48;17.10;;;;;;;;;;5071127;28;20312;-74
2022/02/17 15:13:53;;;;;;;33.88;19.52;;;;;;;;;;5111305;27;20433;-76
2022/02/17 15:17:52;;;;;;;48.53;30.63;;;;;;;;;;5111728;27;20752;-76
2022/02/17 15:22:16;;;;;;;36.05;22.30;;;;;;;;;;5111638;27;20916;-75
2022/02/17 15:26:27;;;;;;;29.45;17.85;;;;;;;;;;5071029;28;20461;-74
2022/02/17 15:28:55;;;;;;;33.58;17.17;;;;;;;;;;5070584;28;20055;-74
2022/02/17 15:31:22;;;;;;;34.85;17.85;;;;;;;;;;5069226;28;20083;-75
2022/02/17 15:33:49;;;;;;;29.27;17.25;;;;;;;;;;5068885;28;20021;-75
2022/02/17 15:36:57;;;;;;;46.97;19.25;;;;;;;;;;5091263;28;20436;-76
2022/02/17 15:39:24;;;;;;;45.25;20.08;;;;;;;;;;5089967;28;20028;-75
2022/02/17 15:42:23;;;;;;;41.05;19.08;;;;;;;;;;5071483;28;20387;-74
2022/02/17 15:47:50;;;;;;;40.65;18.92;;;;;;;;;;5070785;28;20391;-75
2022/02/17 15:50:18;;;;;;;34.20;18.33;;;;;;;;;;5069454;28;20056;-74
2022/02/17 15:52:44;;;;;;;29.65;16.00;;;;;;;;;;5070821;28;20020;-74
2022/02/17 15:58:07;;;;;;;28.27;15.82;;;;;;;;;;5091433;27;20386;-74